Time;durP1;ratioP1;P1;durP2;ratioP2;P2;SDS_P1;SDS_P2;PMS_P1;PMS_P2;Temp;Humidity;BMP_temperature;BMP_pressure;BME280_temperature;BME280_humidity;BME280_pressure;Samples;Min_cycle;Max_cycle;Signal;HPM_P1;HPM_P2
2021/03/29 00:00:38;;;;;;;7.83;3.80;;;10.40;99.90;;;;;;5022822;28;20215;-49
2021/03/29 00:03:06;;;;;;;8.70;3.70;;;10.40;99.90;;;;;;5012508;28;20211;-50
2021/03/29 00:05:34;;;;;;;8.20;3.97;;;10.40;99.90;;;;;;5022262;28;20184;-46
2021/03/29 00:08:09;;;;;;;9.37;3.70;;;10.40;99.90;;;;;;5026472;28;20208;-46
2021/03/29 00:10:37;;;;;;;10.33;3.63;;;10.30;99.90;;;;;;5022604;28;20183;-49
2021/03/29 00:13:04;;;;;;;13.40;3.83;;;10.30;99.90;;;;;;5025682;28;20683;-48
2021/03/29 00:15:33;;;;;;;7.40;3.80;;;10.30;99.90;;;;;;5022189;28;20251;-46
2021/03/29 00:18:00;;;;;;;6.43;3.50;;;10.30;99.90;;;;;;5012500;28;20224;-51
2021/03/29 00:20:29;;;;;;;4.73;3.00;;;10.30;99.90;;;;;;5021570;28;20246;-53
2021/03/29 00:22:56;;;;;;;10.97;3.60;;;10.30;99.90;;;;;;5025725;28;20192;-47
2021/03/29 00:25:23;;;;;;;6.30;3.40;;;10.40;99.90;;;;;;5021913;28;20215;-49
2021/03/29 00:27:50;;;;;;;11.13;3.43;;;10.40;99.90;;;;;;5025023;28;20206;-47
2021/03/29 00:30:19;;;;;;;5.83;3.27;;;10.40;99.90;;;;;;5022340;28;20227;-50
2021/03/29 00:32:46;;;;;;;7.70;3.27;;;10.40;99.90;;;;;;5010581;28;20212;-48
2021/03/29 00:35:14;;;;;;;13.53;3.67;;;10.40;99.90;;;;;;5024512;28;20299;-48
2021/03/29 00:37:45;;;;;;;13.00;3.40;;;10.40;99.90;;;;;;5023229;28;20406;-50
2021/03/29 00:40:12;;;;;;;3.90;2.23;;;10.40;99.90;;;;;;5024457;28;20203;-53
2021/03/29 00:42:40;;;;;;;7.80;3.03;;;10.40;99.90;;;;;;5022839;28;20193;-46
2021/03/29 00:45:08;;;;;;;10.10;3.00;;;10.40;99.90;;;;;;5025507;28;20357;-46
2021/03/29 00:47:35;;;;;;;4.93;2.70;;;10.40;99.90;;;;;;5008246;28;20837;-46
2021/03/29 00:50:07;;;;;;;8.10;2.67;;;10.40;99.90;;;;;;5024790;28;20539;-45
2021/03/29 00:52:33;;;;;;;5.83;3.00;;;10.40;99.90;;;;;;5017099;28;20196;-47
2021/03/29 00:55:01;;;;;;;8.60;3.27;;;10.40;99.90;;;;;;5010704;28;20669;-45
2021/03/29 00:57:28;;;;;;;4.27;2.70;;;10.40;99.90;;;;;;5013078;28;20176;-45
2021/03/29 00:59:54;;;;;;;4.13;2.43;;;10.40;99.90;;;;;;5040185;28;20223;-49
2021/03/29 01:02:22;;;;;;;6.73;2.80;;;10.40;99.90;;;;;;5022516;28;20676;-47
2021/03/29 01:04:48;;;;;;;9.47;2.60;;;10.40;99.90;;;;;;5011223;28;20265;-51
2021/03/29 01:07:16;;;;;;;9.73;2.77;;;10.50;99.90;;;;;;5023422;28;20283;-52
2021/03/29 01:09:42;;;;;;;6.80;2.50;;;10.50;99.90;;;;;;5022671;28;20204;-49
2021/03/29 01:12:11;;;;;;;6.90;2.47;;;10.40;99.90;;;;;;5024690;28;20207;-49
2021/03/29 01:14:39;;;;;;;4.87;2.47;;;10.40;99.90;;;;;;5021856;28;20242;-47
2021/03/29 01:17:08;;;;;;;8.00;2.33;;;10.40;99.90;;;;;;5025087;28;20198;-52
2021/03/29 01:19:53;;;;;;;8.23;1.87;;;10.50;99.90;;;;;;5007451;28;21040;-50
2021/03/29 01:22:22;;;;;;;4.93;2.40;;;10.40;99.90;;;;;;5022258;28;20192;-52
2021/03/29 01:24:55;;;;;;;8.23;2.40;;;10.40;99.90;;;;;;5023297;28;20625;-52
2021/03/29 01:27:29;;;;;;;5.10;2.27;;;10.40;99.90;;;;;;5021510;28;20204;-51
2021/03/29 01:29:56;;;;;;;7.60;2.73;;;10.40;99.90;;;;;;5024593;28;20751;-49
2021/03/29 01:32:23;;;;;;;4.80;2.67;;;10.40;99.90;;;;;;5021099;28;20703;-49
2021/03/29 01:34:50;;;;;;;5.77;2.87;;;10.40;99.90;;;;;;5024649;28;20637;-51
2021/03/29 01:37:17;;;;;;;3.43;2.20;;;10.40;99.90;;;;;;5008731;28;20729;-48
2021/03/29 01:39:45;;;;;;;4.27;2.77;;;10.40;99.90;;;;;;5022917;28;20881;-50
2021/03/29 01:42:12;;;;;;;6.43;2.70;;;10.40;99.90;;;;;;5023202;28;20192;-51
2021/03/29 01:44:41;;;;;;;7.10;2.60;;;10.40;99.90;;;;;;5013371;28;20298;-48
2021/03/29 01:47:09;;;;;;;6.27;2.20;;;10.40;99.90;;;;;;5024017;28;20803;-50
2021/03/29 01:49:36;;;;;;;7.53;2.50;;;10.40;99.90;;;;;;5020731;28;20261;-53
2021/03/29 01:52:03;;;;;;;7.13;2.60;;;10.40;99.90;;;;;;5010591;28;20216;-51
2021/03/29 01:54:30;;;;;;;8.13;2.57;;;10.40;99.90;;;;;;5017310;28;20261;-50
2021/03/29 01:56:57;;;;;;;11.03;2.77;;;10.50;99.90;;;;;;5024076;28;20203;-48
2021/03/29 01:59:23;;;;;;;7.93;2.93;;;10.50;99.90;;;;;;5020625;28;20298;-48
2021/03/29 02:01:50;;;;;;;9.53;3.03;;;10.50;99.90;;;;;;5024134;28;20284;-54
2021/03/29 02:04:17;;;;;;;5.70;3.00;;;10.50;99.90;;;;;;5021432;28;20208;-49
2021/03/29 02:06:43;;;;;;;6.97;2.73;;;10.50;99.90;;;;;;5009496;28;20205;-48
2021/03/29 02:09:11;;;;;;;5.80;2.37;;;10.60;99.90;;;;;;5022676;28;20296;-52
2021/03/29 02:11:39;;;;;;;4.37;2.13;;;10.60;99.90;;;;;;5021193;28;20195;-49
2021/03/29 02:14:06;;;;;;;6.47;2.57;;;10.60;99.90;;;;;;5023025;28;20192;-47
2021/03/29 02:16:34;;;;;;;5.47;2.60;;;10.60;99.90;;;;;;5035469;28;20192;-51
2021/03/29 02:19:05;;;;;;;5.33;2.70;;;10.60;99.90;;;;;;5023850;28;20212;-53
2021/03/29 02:21:34;;;;;;;3.53;2.93;;;10.60;99.90;;;;;;5020266;28;20198;-47
2021/03/29 02:24:01;;;;;;;8.93;3.23;;;10.60;99.90;;;;;;5010618;28;20220;-45
2021/03/29 02:26:34;;;;;;;8.10;2.50;;;10.60;99.90;;;;;;5019304;28;20223;-50
2021/03/29 02:29:01;;;;;;;6.73;3.37;;;10.60;99.90;;;;;;5023141;28;20248;-54
2021/03/29 02:31:29;;;;;;;8.73;3.10;;;10.60;99.90;;;;;;5019491;28;20917;-49
2021/03/29 02:33:58;;;;;;;5.43;3.00;;;10.60;99.90;;;;;;5023794;28;20192;-52
2021/03/29 02:36:26;;;;;;;6.33;2.40;;;10.60;99.90;;;;;;5018993;28;20200;-51
2021/03/29 02:38:53;;;;;;;5.77;3.20;;;10.60;99.90;;;;;;5009313;28;20216;-48
2021/03/29 02:41:22;;;;;;;14.03;3.50;;;10.60;99.90;;;;;;5020616;28;20196;-51
2021/03/29 02:43:49;;;;;;;7.47;2.67;;;10.60;99.90;;;;;;5022751;28;20294;-52
2021/03/29 02:46:18;;;;;;;12.17;3.00;;;10.50;99.90;;;;;;5020763;28;20204;-51
2021/03/29 02:48:45;;;;;;;3.53;2.30;;;10.60;99.90;;;;;;5021605;28;20226;-46
2021/03/29 02:51:15;;;;;;;3.70;2.77;;;10.60;99.90;;;;;;5022003;28;20207;-46
2021/03/29 02:53:48;;;;;;;3.27;2.40;;;10.60;99.90;;;;;;5007262;28;20239;-48
2021/03/29 02:56:18;;;;;;;3.67;2.07;;;10.60;99.90;;;;;;5021450;28;20204;-52
2021/03/29 02:58:48;;;;;;;9.40;3.10;;;10.60;99.90;;;;;;5021439;28;21023;-46
2021/03/29 03:01:15;;;;;;;5.07;2.67;;;10.60;99.90;;;;;;5021428;28;20211;-49
2021/03/29 03:03:43;;;;;;;4.37;2.57;;;10.60;99.90;;;;;;5020254;28;20272;-49
2021/03/29 03:06:10;;;;;;;4.70;2.63;;;10.60;99.90;;;;;;5022206;28;20696;-51
2021/03/29 03:08:37;;;;;;;7.10;3.37;;;10.70;99.90;;;;;;5006191;28;20231;-49
2021/03/29 03:11:05;;;;;;;4.57;2.73;;;10.70;99.90;;;;;;5022557;28;20529;-50
2021/03/29 03:13:31;;;;;;;4.80;3.13;;;10.60;99.90;;;;;;5019380;28;20194;-48
2021/03/29 03:15:57;;;;;;;5.47;2.80;;;10.60;99.90;;;;;;5023386;28;20649;-47
2021/03/29 03:18:23;;;;;;;9.70;3.67;;;10.60;99.90;;;;;;5019290;28;20238;-53
2021/03/29 03:20:50;;;;;;;5.77;2.80;;;10.60;99.90;;;;;;5022258;28;20278;-52
2021/03/29 03:23:17;;;;;;;8.77;3.10;;;10.60;99.90;;;;;;5021535;28;20227;-48
2021/03/29 03:25:45;;;;;;;5.30;3.03;;;10.60;99.90;;;;;;5010547;28;20191;-48
2021/03/29 03:28:15;;;;;;;6.67;2.83;;;10.60;99.90;;;;;;5026107;28;20589;-49
2021/03/29 03:30:43;;;;;;;4.60;2.60;;;10.60;99.90;;;;;;5024906;28;20898;-47
2021/03/29 03:33:11;;;;;;;5.90;3.27;;;10.60;99.90;;;;;;5026119;28;20195;-51
2021/03/29 03:35:39;;;;;;;8.20;3.50;;;10.60;99.90;;;;;;5023885;28;20188;-47
2021/03/29 03:38:11;;;;;;;6.87;3.00;;;10.60;99.90;;;;;;5026582;28;20310;-45
2021/03/29 03:40:39;;;;;;;6.53;3.10;;;10.60;99.90;;;;;;5010424;28;20216;-45
2021/03/29 03:43:07;;;;;;;7.70;3.37;;;10.60;99.90;;;;;;5026350;28;20192;-46
2021/03/29 03:45:38;;;;;;;4.13;3.20;;;10.50;99.90;;;;;;5022581;28;20244;-47
2021/03/29 03:48:06;;;;;;;6.90;3.47;;;10.50;99.90;;;;;;5026682;28;20711;-44
2021/03/29 03:50:33;;;;;;;9.07;4.37;;;10.50;99.90;;;;;;5022169;28;20275;-45
2021/03/29 03:53:00;;;;;;;10.17;3.93;;;10.50;99.90;;;;;;5026586;28;20541;-48
2021/03/29 03:55:28;;;;;;;10.83;3.47;;;10.50;99.90;;;;;;5022286;28;20180;-45
2021/03/29 03:57:54;;;;;;;6.90;3.37;;;10.50;99.90;;;;;;5012666;28;20212;-44
2021/03/29 04:00:25;;;;;;;6.03;3.70;;;10.50;99.90;;;;;;5022647;28;20192;-49
2021/03/29 04:02:53;;;;;;;6.33;3.50;;;10.50;99.90;;;;;;5026417;28;20204;-49
2021/03/29 04:05:20;;;;;;;5.23;3.00;;;10.50;99.90;;;;;;5023472;28;20869;-50
2021/03/29 04:07:48;;;;;;;11.83;4.30;;;10.50;99.90;;;;;;5025179;28;20886;-45
2021/03/29 04:10:20;;;;;;;10.60;3.77;;;10.60;99.90;;;;;;5024300;28;20192;-54
2021/03/29 04:12:52;;;;;;;5.43;3.53;;;10.50;99.90;;;;;;5012158;28;20259;-48
2021/03/29 04:15:19;;;;;;;10.03;3.63;;;10.60;99.90;;;;;;5023654;28;20279;-51
2021/03/29 04:17:45;;;;;;;6.60;3.70;;;10.60;99.90;;;;;;5024810;28;20278;-50
2021/03/29 04:20:14;;;;;;;5.77;3.87;;;10.50;99.90;;;;;;5024964;28;20208;-51
2021/03/29 04:22:40;;;;;;;7.93;4.07;;;10.50;99.90;;;;;;5023622;28;20271;-45
2021/03/29 04:25:09;;;;;;;5.70;4.60;;;10.50;99.90;;;;;;5025851;28;20207;-47
2021/03/29 04:27:35;;;;;;;6.70;4.40;;;10.40;99.90;;;;;;5009060;28;20638;-47
2021/03/29 04:30:03;;;;;;;8.77;4.60;;;10.40;99.90;;;;;;5024963;28;20245;-45
2021/03/29 04:32:29;;;;;;;7.77;4.90;;;10.30;99.90;;;;;;5013511;28;20190;-45
2021/03/29 04:34:55;;;;;;;11.67;4.10;;;10.40;99.90;;;;;;5025836;28;20184;-52
2021/03/29 04:37:22;;;;;;;9.87;4.80;;;10.40;99.90;;;;;;5021574;28;20215;-48
2021/03/29 04:39:48;;;;;;;6.33;4.27;;;10.30;99.90;;;;;;5024341;28;20269;-46
2021/03/29 04:42:14;;;;;;;7.63;3.53;;;10.30;99.90;;;;;;5018153;28;20192;-51
2021/03/29 04:44:41;;;;;;;8.37;5.40;;;10.20;99.90;;;;;;5015712;28;20266;-47
2021/03/29 04:47:07;;;;;;;8.30;4.57;;;10.20;99.90;;;;;;5025496;28;20192;-48
2021/03/29 04:49:34;;;;;;;9.87;4.03;;;10.20;99.90;;;;;;5022315;28;20200;-50
2021/03/29 04:52:00;;;;;;;7.90;4.73;;;10.20;99.90;;;;;;5041361;28;20208;-48
2021/03/29 04:54:27;;;;;;;7.40;4.27;;;10.20;99.90;;;;;;5020964;28;20364;-51
2021/03/29 04:56:54;;;;;;;8.40;4.20;;;10.20;99.90;;;;;;5025444;28;20289;-46
2021/03/29 04:59:21;;;;;;;8.27;4.63;;;10.20;99.90;;;;;;5008843;28;20228;-51
2021/03/29 05:01:48;;;;;;;7.37;4.70;;;10.20;99.90;;;;;;5024277;28;20699;-47
2021/03/29 05:04:14;;;;;;;7.37;4.60;;;10.20;99.90;;;;;;5023498;28;20258;-50
2021/03/29 05:06:40;;;;;;;8.93;4.57;;;10.20;99.90;;;;;;5022836;28;20187;-44
2021/03/29 05:09:07;;;;;;;7.67;4.50;;;10.20;99.90;;;;;;5024659;28;20300;-48
2021/03/29 05:11:46;;;;;;;7.67;4.17;;;10.20;99.90;;;;;;5021404;28;20188;-46
2021/03/29 05:14:13;;;;;;;5.30;4.07;;;10.20;99.90;;;;;;5010469;28;20739;-48
2021/03/29 05:16:40;;;;;;;6.03;3.30;;;10.30;99.90;;;;;;5022277;28;20212;-48
2021/03/29 05:19:06;;;;;;;7.03;3.53;;;10.30;99.90;;;;;;5024407;28;20215;-46
2021/03/29 05:21:32;;;;;;;8.17;4.23;;;10.20;99.90;;;;;;5020559;28;20281;-46
2021/03/29 05:23:58;;;;;;;5.40;3.97;;;10.20;99.90;;;;;;5024637;28;20207;-45
2021/03/29 05:26:24;;;;;;;11.50;4.80;;;10.20;99.90;;;;;;5021661;28;20261;-50
2021/03/29 05:28:52;;;;;;;8.00;3.77;;;10.30;99.90;;;;;;5024964;28;20219;-49
2021/03/29 05:31:18;;;;;;;10.53;3.70;;;10.30;99.90;;;;;;5008908;28;20291;-50
2021/03/29 05:33:44;;;;;;;9.03;4.53;;;10.40;99.90;;;;;;5022939;28;20184;-48
2021/03/29 05:36:12;;;;;;;8.67;3.67;;;10.30;99.90;;;;;;5022671;28;20673;-50
2021/03/29 05:38:39;;;;;;;8.83;4.00;;;10.40;99.90;;;;;;5022015;28;20344;-48
2021/03/29 05:41:05;;;;;;;4.07;3.23;;;10.40;99.90;;;;;;5024263;28;20203;-45
2021/03/29 05:43:32;;;;;;;10.33;4.57;;;10.40;99.90;;;;;;5020369;28;20192;-47
2021/03/29 05:46:00;;;;;;;7.30;4.03;;;10.40;99.90;;;;;;5005607;28;20200;-45
2021/03/29 05:48:26;;;;;;;5.63;3.80;;;10.40;99.90;;;;;;5019285;28;20744;-48
2021/03/29 05:50:53;;;;;;;7.47;4.40;;;10.40;99.90;;;;;;5023765;28;20203;-46
2021/03/29 05:53:19;;;;;;;7.30;5.00;;;10.40;99.90;;;;;;5021656;28;20563;-51
2021/03/29 05:55:46;;;;;;;7.93;3.20;;;10.50;99.90;;;;;;5023062;28;20188;-45
2021/03/29 06:01:09;;;;;;;8.23;4.10;;;10.50;99.90;;;;;;4988312;28;20688;-53
2021/03/29 06:03:37;;;;;;;6.57;3.10;;;10.50;99.90;;;;;;5014897;28;20261;-45
2021/03/29 06:06:17;;;;;;;8.40;4.13;;;10.50;99.90;;;;;;5023997;28;20200;-45
2021/03/29 06:08:44;;;;;;;11.00;3.87;;;10.60;99.90;;;;;;5002065;28;20208;-46
2021/03/29 06:11:21;;;;;;;7.80;3.60;;;10.60;99.90;;;;;;5003448;28;20192;-52
2021/03/29 06:13:47;;;;;;;5.33;3.47;;;10.60;99.90;;;;;;4992672;28;20196;-51
2021/03/29 06:16:15;;;;;;;9.23;3.83;;;10.60;99.90;;;;;;5006559;28;20215;-46
2021/03/29 06:18:50;;;;;;;6.87;3.33;;;10.60;99.90;;;;;;5019534;28;20704;-49
2021/03/29 06:21:17;;;;;;;6.07;3.43;;;10.60;99.90;;;;;;5016170;28;20291;-53
2021/03/29 06:23:57;;;;;;;11.50;4.43;;;10.60;99.90;;;;;;5018670;28;20294;-49
2021/03/29 06:26:27;;;;;;;6.43;3.27;;;10.60;99.90;;;;;;5023814;28;20318;-53
2021/03/29 06:28:53;;;;;;;8.50;4.17;;;10.60;99.90;;;;;;5007786;28;20211;-50
2021/03/29 06:31:22;;;;;;;7.07;3.30;;;10.60;99.90;;;;;;5011103;28;20200;-51
2021/03/29 06:33:50;;;;;;;5.60;2.70;;;10.60;99.90;;;;;;5014192;28;20210;-48
2021/03/29 06:36:28;;;;;;;7.83;3.60;;;10.60;99.90;;;;;;5009979;28;20200;-50
2021/03/29 06:38:55;;;;;;;9.50;3.13;;;10.70;99.90;;;;;;5015124;28;20330;-55
2021/03/29 06:41:26;;;;;;;7.10;3.67;;;10.70;99.90;;;;;;5023384;28;20262;-49
2021/03/29 06:43:52;;;;;;;9.30;2.83;;;10.80;99.90;;;;;;5009047;28;20196;-53
2021/03/29 06:46:22;;;;;;;4.93;3.40;;;10.80;99.90;;;;;;5024288;28;20207;-52
2021/03/29 06:48:50;;;;;;;7.73;3.40;;;10.90;99.90;;;;;;5006139;28;20228;-51
2021/03/29 06:51:18;;;;;;;8.70;3.30;;;10.90;99.90;;;;;;5019535;28;20196;-53
2021/03/29 06:53:46;;;;;;;7.80;2.93;;;11.00;99.90;;;;;;5010048;28;20207;-49
2021/03/29 06:56:19;;;;;;;4.93;2.70;;;11.10;99.90;;;;;;5021790;28;20211;-53
2021/03/29 06:58:46;;;;;;;5.47;3.33;;;11.10;99.90;;;;;;5015044;28;20219;-52
2021/03/29 07:01:16;;;;;;;7.87;2.83;;;11.20;99.90;;;;;;5018670;28;20204;-49
2021/03/29 07:03:43;;;;;;;6.73;2.50;;;11.20;99.90;;;;;;5005104;28;20211;-49
2021/03/29 07:06:10;;;;;;;6.30;2.87;;;11.20;99.90;;;;;;5022340;28;20295;-44
2021/03/29 07:08:37;;;;;;;6.57;3.13;;;11.20;99.90;;;;;;5014939;28;20277;-54
2021/03/29 07:11:04;;;;;;;7.23;3.57;;;11.30;99.90;;;;;;5014880;28;20231;-46
2021/03/29 07:13:34;;;;;;;6.87;3.50;;;11.30;99.90;;;;;;5017111;28;20203;-49
2021/03/29 07:16:02;;;;;;;5.67;3.10;;;11.30;99.90;;;;;;5015519;28;20188;-47
2021/03/29 07:18:28;;;;;;;5.97;3.03;;;11.30;99.90;;;;;;5005431;28;20232;-50
2021/03/29 07:20:55;;;;;;;6.90;3.77;;;11.30;99.90;;;;;;5014809;28;20195;-52
2021/03/29 07:23:22;;;;;;;8.73;3.27;;;11.40;99.90;;;;;;5004750;28;20202;-51
2021/03/29 07:25:48;;;;;;;4.47;2.80;;;11.40;99.90;;;;;;5008420;28;20207;-48
2021/03/29 07:28:15;;;;;;;8.77;3.20;;;11.40;99.90;;;;;;5010996;28;20630;-49
2021/03/29 07:30:48;;;;;;;8.33;3.17;;;11.40;99.90;;;;;;5017201;28;20207;-55
2021/03/29 07:33:16;;;;;;;11.00;3.40;;;11.50;99.90;;;;;;5017696;28;20261;-50
2021/03/29 07:35:48;;;;;;;8.50;3.40;;;11.50;99.90;;;;;;5003268;28;20208;-54
2021/03/29 07:38:16;;;;;;;7.83;3.10;;;11.50;99.90;;;;;;5017858;28;20212;-50
2021/03/29 07:40:45;;;;;;;17.47;3.53;;;11.60;99.90;;;;;;5014999;28;20208;-54
2021/03/29 07:43:13;;;;;;;6.50;2.77;;;11.60;99.90;;;;;;5018360;28;20214;-46
2021/03/29 07:45:52;;;;;;;6.57;2.97;;;11.70;99.90;;;;;;5018784;28;20293;-47
2021/03/29 07:48:39;;;;;;;6.10;3.10;;;11.70;99.90;;;;;;5021760;28;20238;-48
2021/03/29 07:51:08;;;;;;;5.20;2.60;;;11.70;99.90;;;;;;5016282;28;20203;-51
2021/03/29 07:53:47;;;;;;;3.80;3.00;;;11.80;99.90;;;;;;5020359;28;20227;-52
2021/03/29 07:56:38;;;;;;;5.23;2.40;;;11.80;99.90;;;;;;5013963;28;20204;-54
2021/03/29 07:59:06;;;;;;;5.70;2.83;;;11.80;99.90;;;;;;5013221;28;20299;-52
2021/03/29 08:02:00;;;;;;;3.93;2.50;;;11.80;99.90;;;;;;5017740;28;20587;-49
2021/03/29 08:05:05;;;;;;;5.80;2.80;;;11.90;99.90;;;;;;5022415;28;20235;-47
2021/03/29 08:07:38;;;;;;;3.83;2.70;;;12.00;99.90;;;;;;5013721;28;20657;-48
2021/03/29 08:10:07;;;;;;;6.97;2.90;;;12.10;99.90;;;;;;5016302;28;20220;-49
2021/03/29 08:12:35;;;;;;;6.13;3.07;;;12.20;99.90;;;;;;5019563;28;20261;-54
2021/03/29 08:15:01;;;;;;;8.90;2.70;;;12.20;99.90;;;;;;5018634;28;20451;-49
2021/03/29 08:17:53;;;;;;;5.40;3.10;;;12.20;99.90;;;;;;5022219;28;20222;-50
2021/03/29 08:20:25;;;;;;;6.67;2.80;;;12.20;99.90;;;;;;5011117;28;20291;-49
2021/03/29 08:23:30;;;;;;;6.30;2.53;;;12.20;99.90;;;;;;5020302;28;20204;-48
2021/03/29 08:26:20;;;;;;;8.43;2.93;;;12.20;99.90;;;;;;5013315;28;20254;-53
2021/03/29 08:29:11;;;;;;;6.00;3.20;;;12.20;99.90;;;;;;5013773;28;20277;-49
2021/03/29 08:32:09;;;;;;;6.70;2.67;;;12.20;99.90;;;;;;5023490;28;20192;-51
2021/03/29 08:34:41;;;;;;;6.23;2.70;;;12.20;99.90;;;;;;5017742;28;20200;-51
2021/03/29 08:37:09;;;;;;;8.47;2.67;;;12.30;99.90;;;;;;5018345;28;20692;-50
2021/03/29 08:39:38;;;;;;;9.60;3.10;;;12.30;99.90;;;;;;5023708;28;20709;-54
2021/03/29 08:42:06;;;;;;;4.73;2.77;;;12.40;99.90;;;;;;5014456;28;22787;-50
2021/03/29 08:44:33;;;;;;;7.93;3.10;;;12.40;99.90;;;;;;5016551;28;20254;-52
2021/03/29 08:46:59;;;;;;;9.07;2.70;;;12.50;99.90;;;;;;5006090;28;23288;-51
2021/03/29 08:49:26;;;;;;;5.87;3.50;;;12.50;99.90;;;;;;5025020;28;20258;-50
2021/03/29 08:51:53;;;;;;;8.53;3.23;;;12.50;99.90;;;;;;5007744;28;20204;-51
2021/03/29 08:54:19;;;;;;;7.70;3.03;;;12.60;99.90;;;;;;5025373;28;20196;-51
2021/03/29 08:56:49;;;;;;;9.60;3.20;;;12.60;99.90;;;;;;5017128;28;20811;-53
2021/03/29 08:59:16;;;;;;;8.60;3.33;;;12.70;99.90;;;;;;5020506;28;20220;-54
2021/03/29 09:01:43;;;;;;;8.30;3.43;;;12.80;99.90;;;;;;5017831;28;20699;-53
2021/03/29 09:04:10;;;;;;;7.57;3.20;;;12.90;99.90;;;;;;5018563;28;20231;-51
2021/03/29 09:06:37;;;;;;;5.07;3.43;;;12.90;99.90;;;;;;5015503;28;20204;-50
2021/03/29 09:09:14;;;;;;;6.83;3.30;;;12.90;99.90;;;;;;5015104;28;20243;-52
2021/03/29 09:11:41;;;;;;;7.50;3.50;;;13.00;99.90;;;;;;5020628;28;20250;-51
2021/03/29 09:14:08;;;;;;;10.03;3.53;;;13.10;99.90;;;;;;5017203;28;20258;-55
2021/03/29 09:16:35;;;;;;;6.33;2.83;;;13.10;99.90;;;;;;5020076;28;20200;-55
2021/03/29 09:19:12;;;;;;;7.60;3.00;;;13.10;99.90;;;;;;5017081;28;21888;-51
2021/03/29 09:21:39;;;;;;;5.80;3.40;;;13.10;99.90;;;;;;5009152;28;20199;-50
2021/03/29 09:24:15;;;;;;;7.57;3.33;;;13.20;99.90;;;;;;5016868;28;20898;-54
2021/03/29 09:26:41;;;;;;;9.67;3.20;;;13.20;99.90;;;;;;5018405;28;20215;-54
2021/03/29 09:29:21;;;;;;;9.77;3.10;;;13.20;99.90;;;;;;5016349;28;20358;-53
2021/03/29 09:31:49;;;;;;;4.83;2.73;;;13.20;99.90;;;;;;5020435;28;20283;-53
2021/03/29 09:34:15;;;;;;;8.57;3.97;;;13.30;99.90;;;;;;5022613;28;20185;-51
2021/03/29 09:36:41;;;;;;;6.57;3.80;;;13.30;99.90;;;;;;5018102;28;20204;-54
2021/03/29 09:39:14;;;;;;;11.53;3.77;;;13.30;99.90;;;;;;5009765;28;20228;-52
2021/03/29 09:41:49;;;;;;;7.47;3.67;;;13.40;99.90;;;;;;5020759;28;20212;-55
2021/03/29 09:44:16;;;;;;;4.27;2.73;;;13.50;99.90;;;;;;5008983;28;20255;-47
2021/03/29 09:46:42;;;;;;;8.70;3.30;;;13.50;99.90;;;;;;5016506;28;20208;-55
2021/03/29 09:49:11;;;;;;;5.30;3.40;;;13.50;99.90;;;;;;5021108;28;20212;-47
2021/03/29 09:51:40;;;;;;;7.03;3.93;;;13.60;99.90;;;;;;5018338;28;20653;-55
2021/03/29 09:54:24;;;;;;;7.77;3.07;;;13.70;99.90;;;;;;5009649;28;20200;-50
2021/03/29 09:56:51;;;;;;;4.83;2.83;;;13.70;99.90;;;;;;5019167;28;20195;-50
2021/03/29 09:59:28;;;;;;;9.47;3.50;;;13.70;99.90;;;;;;5018797;28;20260;-52
2021/03/29 10:01:54;;;;;;;7.30;3.80;;;13.70;99.90;;;;;;5014697;28;20886;-53
2021/03/29 10:04:23;;;;;;;6.20;3.20;;;13.80;99.90;;;;;;5023604;28;20226;-47
2021/03/29 10:06:51;;;;;;;6.23;3.13;;;14.00;99.90;;;;;;5015345;28;20191;-53
2021/03/29 10:09:29;;;;;;;7.47;3.47;;;14.10;99.90;;;;;;5010194;28;20263;-53
2021/03/29 10:11:55;;;;;;;7.97;3.93;;;14.20;99.90;;;;;;5020144;28;20246;-55
2021/03/29 10:14:31;;;;;;;10.93;3.10;;;14.30;99.90;;;;;;5023892;28;20184;-53
2021/03/29 10:16:57;;;;;;;3.77;2.70;;;14.40;99.90;;;;;;5008929;28;20213;-53
2021/03/29 10:19:31;;;;;;;6.53;3.00;;;14.30;99.90;;;;;;5019795;28;20216;-54
2021/03/29 10:22:03;;;;;;;9.97;4.47;;;14.30;99.90;;;;;;5019371;28;20212;-55
2021/03/29 10:24:30;;;;;;;5.73;3.10;;;14.50;99.90;;;;;;5005236;28;20216;-54
2021/03/29 10:26:59;;;;;;;6.43;3.50;;;14.50;99.90;;;;;;5015190;28;20200;-55
2021/03/29 10:29:30;;;;;;;7.73;3.63;;;14.50;99.90;;;;;;5018117;28;20235;-54
2021/03/29 10:31:56;;;;;;;13.37;4.03;;;14.40;99.90;;;;;;5016299;28;20199;-52
2021/03/29 10:34:22;;;;;;;8.23;3.40;;;14.50;99.90;;;;;;5017766;28;20199;-53
2021/03/29 10:36:49;;;;;;;7.40;3.20;;;14.50;99.90;;;;;;5019896;28;20210;-53
2021/03/29 10:39:15;;;;;;;8.73;3.83;;;14.50;99.90;;;;;;5015617;28;20288;-49
2021/03/29 10:41:41;;;;;;;6.73;4.20;;;14.60;99.90;;;;;;5009976;28;20676;-52
2021/03/29 10:44:08;;;;;;;8.57;3.40;;;14.70;99.90;;;;;;5020863;28;20199;-52
2021/03/29 10:46:34;;;;;;;8.80;3.40;;;14.70;99.90;;;;;;5018488;28;20204;-48
2021/03/29 10:49:00;;;;;;;3.60;2.97;;;14.70;99.90;;;;;;5020374;28;20581;-51
2021/03/29 10:51:26;;;;;;;7.07;3.30;;;14.70;99.90;;;;;;5012362;28;20203;-51
2021/03/29 10:53:53;;;;;;;7.60;3.33;;;14.80;99.90;;;;;;5019103;28;20208;-49
2021/03/29 10:56:19;;;;;;;8.03;3.90;;;14.80;99.90;;;;;;4997025;28;20208;-49
2021/03/29 10:58:45;;;;;;;9.10;3.60;;;14.90;99.90;;;;;;5013749;28;20235;-51
2021/03/29 11:01:11;;;;;;;7.60;3.80;;;15.00;99.90;;;;;;5012324;28;20188;-51
2021/03/29 11:03:38;;;;;;;9.67;3.63;;;15.00;99.90;;;;;;5021355;28;20684;-51
2021/03/29 11:06:04;;;;;;;5.73;3.20;;;15.10;99.90;;;;;;5020305;28;20223;-50
2021/03/29 11:08:31;;;;;;;5.03;3.73;;;15.20;99.90;;;;;;5016851;28;20212;-49
2021/03/29 11:10:58;;;;;;;5.33;3.20;;;15.40;99.90;;;;;;5009292;28;20211;-52
2021/03/29 11:13:24;;;;;;;6.97;3.60;;;15.50;99.90;;;;;;4994519;28;20301;-51
2021/03/29 11:15:52;;;;;;;7.37;3.70;;;15.40;99.90;;;;;;5017692;28;20258;-51
2021/03/29 11:18:18;;;;;;;5.53;3.40;;;15.40;99.90;;;;;;5003779;28;20212;-55
2021/03/29 11:20:44;;;;;;;7.47;4.30;;;15.50;99.90;;;;;;5018684;28;20200;-54
2021/03/29 11:23:10;;;;;;;8.27;3.83;;;15.60;99.90;;;;;;5010832;28;20246;-53
2021/03/29 11:25:36;;;;;;;5.90;3.93;;;15.80;99.90;;;;;;5009943;28;20221;-54
2021/03/29 11:28:04;;;;;;;6.87;3.87;;;15.90;99.90;;;;;;5003116;28;20246;-52
2021/03/29 11:30:31;;;;;;;7.93;3.40;;;16.00;99.90;;;;;;5018656;28;20200;-52
2021/03/29 11:32:57;;;;;;;7.77;3.80;;;16.20;99.90;;;;;;5012617;28;20188;-47
2021/03/29 11:35:23;;;;;;;5.00;3.50;;;16.20;99.90;;;;;;5021494;28;20238;-52
2021/03/29 11:37:49;;;;;;;4.83;3.37;;;16.40;99.90;;;;;;5018766;28;20279;-53
2021/03/29 11:40:15;;;;;;;8.17;3.90;;;16.40;99.90;;;;;;5016136;28;20200;-52
2021/03/29 11:42:42;;;;;;;3.93;3.43;;;16.30;99.90;;;;;;5015196;28;20235;-51
2021/03/29 11:45:10;;;;;;;8.70;4.10;;;16.40;99.90;;;;;;5008347;28;20336;-52
2021/03/29 11:47:39;;;;;;;6.33;3.53;;;16.30;99.90;;;;;;5012503;28;20207;-53
2021/03/29 11:50:13;;;;;;;7.37;4.10;;;16.20;99.90;;;;;;5026528;28;20196;-52
2021/03/29 11:52:40;;;;;;;7.00;4.10;;;16.30;99.90;;;;;;5018239;28;20962;-51
2021/03/29 11:55:07;;;;;;;8.83;4.20;;;16.50;99.90;;;;;;5018937;28;20208;-51
2021/03/29 11:57:34;;;;;;;5.97;3.70;;;16.60;99.90;;;;;;5012894;28;20216;-54
2021/03/29 12:00:03;;;;;;;5.40;4.33;;;16.60;99.90;;;;;;5006857;28;20302;-51
2021/03/29 12:02:36;;;;;;;4.30;3.20;;;16.50;99.90;;;;;;5018544;28;20254;-54
2021/03/29 12:05:06;;;;;;;4.83;3.63;;;16.60;99.90;;;;;;5021397;28;20310;-49
2021/03/29 12:07:44;;;;;;;8.60;3.70;;;16.80;99.90;;;;;;5022975;28;20633;-49
2021/03/29 12:12:56;;;;;;;6.03;3.93;;;16.80;99.90;;;;;;5018185;28;20200;-45
2021/03/29 12:15:23;;;;;;;8.27;4.07;;;16.90;99.90;;;;;;5010585;28;20204;-51
2021/03/29 12:17:50;;;;;;;10.17;4.53;;;17.00;99.90;;;;;;5023212;28;20570;-48
2021/03/29 12:20:18;;;;;;;5.57;4.43;;;17.00;99.90;;;;;;5020432;28;20214;-47
2021/03/29 12:22:46;;;;;;;6.43;4.20;;;17.00;99.90;;;;;;5022269;28;20295;-47
2021/03/29 12:25:15;;;;;;;7.17;4.67;;;17.00;99.90;;;;;;5021349;28;20214;-46
2021/03/29 12:27:42;;;;;;;9.20;4.53;;;17.00;99.90;;;;;;5021864;28;20239;-47
2021/03/29 12:30:12;;;;;;;9.43;4.23;;;17.00;99.90;;;;;;5008503;28;20215;-49
2021/03/29 12:32:39;;;;;;;7.53;4.73;;;17.10;99.90;;;;;;5024455;28;20230;-46
2021/03/29 12:35:11;;;;;;;5.97;4.07;;;17.10;99.90;;;;;;5015977;28;20952;-49
2021/03/29 12:37:38;;;;;;;11.07;4.50;;;17.20;99.90;;;;;;5020753;28;20976;-48
2021/03/29 12:40:10;;;;;;;7.20;4.50;;;17.20;99.90;;;;;;5020944;28;20196;-48
2021/03/29 12:42:46;;;;;;;6.53;4.93;;;17.30;99.90;;;;;;5025278;28;20769;-46
2021/03/29 12:45:15;;;;;;;7.90;4.67;;;17.30;99.90;;;;;;5013806;28;20262;-46
2021/03/29 12:47:41;;;;;;;6.47;4.20;;;17.20;99.90;;;;;;5011327;28;20211;-46
2021/03/29 12:50:09;;;;;;;7.27;4.30;;;17.30;99.90;;;;;;5006673;28;20284;-52
2021/03/29 12:52:36;;;;;;;8.97;4.97;;;17.40;99.90;;;;;;5016474;28;20207;-46
2021/03/29 12:55:03;;;;;;;6.87;4.93;;;17.40;99.90;;;;;;5022211;28;20240;-47
2021/03/29 12:57:29;;;;;;;7.13;4.77;;;17.30;99.90;;;;;;5022291;28;20235;-47
2021/03/29 12:59:55;;;;;;;6.63;4.43;;;17.10;99.90;;;;;;5017708;28;20234;-46